createdAt,value
2019-03-22T00:00:28.261Z,4.10
2019-03-22T00:01:28.279Z,4.05
2019-03-22T00:02:28.247Z,4.12
2019-03-22T00:03:28.233Z,4.08
2019-03-22T00:04:28.220Z,4.10
2019-03-22T00:05:28.206Z,4.14
2019-03-22T00:06:28.195Z,4.16
2019-03-22T00:07:28.208Z,4.12
2019-03-22T00:08:28.194Z,4.04
2019-03-22T00:09:28.166Z,4.10
2019-03-22T00:10:29.659Z,4.08
2019-03-22T00:11:29.659Z,3.96
2019-03-22T00:12:29.670Z,3.98
2019-03-22T00:13:29.681Z,3.98
2019-03-22T00:14:29.674Z,3.95
2019-03-22T00:15:29.671Z,3.92
2019-03-22T00:16:29.671Z,3.94
2019-03-22T00:17:29.669Z,3.94
2019-03-22T00:18:29.675Z,3.94
2019-03-22T00:19:29.658Z,3.92
2019-03-22T00:20:29.671Z,3.92
2019-03-22T00:21:29.670Z,3.84
2019-03-22T00:22:29.673Z,3.83
2019-03-22T00:23:29.671Z,3.78
2019-03-22T00:24:29.681Z,3.74
2019-03-22T00:25:29.683Z,3.66
2019-03-22T00:26:29.670Z,3.66
2019-03-22T00:27:29.670Z,3.63
2019-03-22T00:28:29.670Z,3.78
2019-03-22T00:29:29.677Z,3.78
2019-03-22T00:30:29.667Z,3.80
2019-03-22T00:31:29.367Z,3.86
2019-03-22T00:32:29.667Z,3.84
2019-03-22T00:33:29.669Z,3.92
2019-03-22T00:34:29.680Z,4.05
2019-03-22T00:35:29.669Z,4.01
2019-03-22T00:36:29.669Z,4.10
2019-03-22T00:37:29.667Z,4.14
2019-03-22T00:38:29.659Z,4.13
2019-03-22T00:39:29.680Z,4.12
2019-03-22T00:40:29.675Z,4.13
2019-03-22T00:41:29.665Z,4.17
2019-03-22T00:42:29.666Z,4.10
2019-03-22T00:43:29.666Z,4.14
2019-03-22T00:44:29.669Z,4.04
2019-03-22T00:45:29.676Z,4.05
2019-03-22T00:46:29.668Z,3.95
2019-03-22T00:47:29.668Z,3.95
2019-03-22T00:48:29.667Z,3.87
2019-03-22T00:49:29.666Z,3.94
2019-03-22T00:50:29.665Z,3.84
2019-03-22T00:51:29.673Z,3.83
2019-03-22T00:52:29.665Z,3.80
2019-03-22T00:53:29.692Z,3.86
2019-03-22T00:54:29.666Z,3.77
2019-03-22T00:55:29.653Z,3.73
2019-03-22T00:56:29.172Z,3.66
2019-03-22T00:57:29.187Z,3.56
2019-03-22T00:58:29.166Z,3.56
2019-03-22T00:59:29.173Z,3.58
2019-03-22T01:00:29.169Z,3.62
2019-03-22T01:01:29.162Z,3.51
2019-03-22T01:02:29.171Z,3.45
2019-03-22T01:03:29.156Z,3.48
2019-03-22T01:04:29.163Z,3.58
2019-03-22T01:05:29.168Z,3.56
2019-03-22T01:06:29.165Z,3.56
2019-03-22T01:07:29.178Z,3.55
2019-03-22T01:08:29.169Z,3.58
2019-03-22T01:09:29.171Z,3.60
2019-03-22T01:10:29.153Z,3.70
2019-03-22T01:11:29.164Z,3.77
2019-03-22T01:12:29.163Z,3.78
2019-03-22T01:13:29.162Z,3.86
2019-03-22T01:14:29.151Z,3.88
2019-03-22T01:15:29.168Z,3.94
2019-03-22T01:16:29.161Z,4.01
2019-03-22T01:17:29.164Z,3.95
2019-03-22T01:18:29.163Z,4.01
2019-03-22T01:19:29.163Z,3.99
2019-03-22T01:20:29.175Z,3.92
2019-03-22T01:21:29.173Z,3.80
2019-03-22T01:22:29.167Z,3.87
2019-03-22T01:23:29.161Z,3.66
2019-03-22T01:24:29.160Z,3.70
2019-03-22T01:25:29.162Z,3.55
2019-03-22T01:26:29.163Z,3.47
2019-03-22T01:27:39.771Z,3.58
2019-03-22T01:28:30.168Z,3.59
2019-03-22T01:29:29.162Z,3.62
2019-03-22T01:30:29.162Z,3.60
2019-03-22T01:31:29.161Z,3.55
2019-03-22T01:32:29.173Z,3.59
2019-03-22T01:33:29.160Z,3.55
2019-03-22T01:34:29.153Z,3.50
2019-03-22T01:35:29.150Z,3.51
2019-03-22T01:36:29.159Z,3.34
2019-03-22T01:37:29.169Z,3.42
2019-03-22T01:38:29.163Z,3.34
2019-03-22T01:39:29.161Z,3.37
2019-03-22T01:40:29.160Z,3.32
2019-03-22T01:41:29.159Z,3.28
2019-03-22T01:42:29.172Z,3.19
2019-03-22T01:43:28.170Z,3.18
2019-03-22T01:44:28.668Z,3.16
2019-03-22T01:45:28.657Z,3.13
2019-03-22T01:46:28.657Z,3.14
2019-03-22T01:47:28.657Z,3.10
2019-03-22T01:48:28.657Z,3.16
2019-03-22T01:49:28.661Z,3.13
2019-03-22T01:50:27.111Z,3.16
2019-03-22T01:51:28.659Z,3.10
2019-03-22T01:52:28.659Z,3.10
2019-03-22T01:53:28.669Z,3.16
2019-03-22T01:54:28.649Z,3.22
2019-03-22T01:55:28.663Z,3.13
2019-03-22T01:56:27.044Z,3.16
2019-03-22T01:57:28.668Z,3.25
2019-03-22T01:58:28.659Z,3.23
2019-03-22T01:59:28.656Z,3.23
2019-03-22T02:00:28.655Z,3.23
2019-03-22T02:01:28.657Z,3.23
2019-03-22T02:02:26.966Z,3.22
2019-03-22T02:03:28.669Z,3.26
2019-03-22T02:04:28.657Z,3.28
2019-03-22T02:05:28.663Z,3.26
2019-03-22T02:06:28.656Z,3.22
2019-03-22T02:07:28.665Z,3.25
2019-03-22T02:08:28.657Z,3.22
2019-03-22T02:09:28.658Z,3.23
2019-03-22T02:10:28.668Z,3.23
2019-03-22T02:11:28.659Z,3.23
2019-03-22T02:12:28.667Z,3.41
2019-03-22T02:13:28.654Z,3.40
2019-03-22T02:14:28.667Z,3.50
2019-03-22T02:15:28.657Z,3.51
2019-03-22T02:16:28.656Z,3.53
2019-03-22T02:17:28.654Z,3.60
2019-03-22T02:18:28.654Z,3.62
2019-03-22T02:19:28.653Z,3.65
2019-03-22T02:20:28.662Z,3.56
2019-03-22T02:21:42.661Z,3.55
2019-03-22T02:22:28.655Z,3.58
2019-03-22T02:23:28.659Z,3.51
2019-03-22T02:24:28.656Z,3.42
2019-03-22T02:25:28.661Z,3.31
2019-03-22T02:26:26.703Z,3.42
2019-03-22T02:27:28.652Z,3.36
2019-03-22T02:28:28.656Z,3.29
2019-03-22T02:29:28.687Z,3.19
2019-03-22T02:30:28.657Z,3.07
2019-03-22T02:31:28.160Z,3.14
2019-03-22T02:32:27.157Z,3.23
2019-03-22T02:33:28.154Z,3.18
2019-03-22T02:34:28.153Z,3.16
2019-03-22T02:35:29.676Z,3.05
2019-03-22T02:36:28.154Z,3.03
2019-03-22T02:37:28.236Z,3.07
2019-03-22T02:38:28.145Z,3.00
2019-03-22T02:39:28.312Z,3.05
2019-03-22T02:40:28.154Z,3.04
2019-03-22T02:41:28.162Z,3.05
2019-03-22T02:42:28.144Z,3.07
2019-03-22T02:43:28.157Z,3.05
2019-03-22T02:44:28.151Z,3.08
2019-03-22T02:45:28.156Z,3.10
2019-03-22T02:46:28.169Z,3.11
2019-03-22T02:47:28.167Z,3.11
2019-03-22T02:48:28.161Z,3.16
2019-03-22T02:49:28.153Z,3.21
2019-03-22T02:50:28.151Z,3.21
2019-03-22T02:51:28.152Z,3.19
2019-03-22T02:52:28.165Z,3.26
2019-03-22T02:53:28.150Z,3.21
2019-03-22T02:54:28.150Z,3.10
2019-03-22T02:55:28.148Z,3.16
2019-03-22T02:56:28.150Z,3.11
2019-03-22T02:57:28.161Z,3.14
2019-03-22T02:58:28.151Z,3.10
2019-03-22T02:59:28.172Z,3.16
2019-03-22T03:00:28.153Z,3.01
2019-03-22T03:01:28.158Z,3.08
2019-03-22T03:02:28.153Z,3.04
2019-03-22T03:03:28.151Z,3.11
2019-03-22T03:04:28.154Z,3.01
2019-03-22T03:05:28.158Z,3.01
2019-03-22T03:06:28.142Z,2.92
2019-03-22T03:07:28.158Z,2.98
2019-03-22T03:08:28.148Z,2.98
2019-03-22T03:09:28.157Z,2.95
2019-03-22T03:10:28.157Z,3.01
2019-03-22T03:11:28.152Z,3.01
2019-03-22T03:12:28.168Z,3.05
2019-03-22T03:13:28.158Z,3.03
2019-03-22T03:14:28.151Z,3.01
2019-03-22T03:15:28.148Z,3.05
2019-03-22T03:16:28.148Z,3.11
2019-03-22T03:17:28.149Z,3.08
2019-03-22T03:18:27.673Z,3.08
2019-03-22T03:19:27.639Z,3.23
2019-03-22T03:20:27.652Z,3.11
2019-03-22T03:21:27.658Z,3.16
2019-03-22T03:22:27.653Z,3.11
2019-03-22T03:23:27.650Z,3.04
2019-03-22T03:24:27.658Z,3.00
2019-03-22T03:25:27.646Z,2.95
2019-03-22T03:26:27.653Z,2.98
2019-03-22T03:27:27.636Z,2.83
2019-03-22T03:28:36.821Z,2.90
2019-03-22T03:29:28.656Z,2.82
2019-03-22T03:30:27.656Z,2.77
2019-03-22T03:31:27.662Z,2.75
2019-03-22T03:32:27.665Z,2.79
2019-03-22T03:33:27.648Z,2.79
2019-03-22T03:34:27.646Z,2.75
2019-03-22T03:35:27.648Z,2.82
2019-03-22T03:36:27.647Z,2.75
2019-03-22T03:37:27.646Z,2.71
2019-03-22T03:38:27.672Z,2.75
2019-03-22T03:39:27.638Z,2.89
2019-03-22T03:40:27.661Z,2.87
2019-03-22T03:41:27.647Z,2.89
2019-03-22T03:42:27.658Z,2.90
2019-03-22T03:43:27.671Z,2.95
2019-03-22T03:44:27.651Z,3.01
2019-03-22T03:45:27.645Z,2.95
2019-03-22T03:46:27.656Z,2.95
2019-03-22T03:47:27.654Z,3.03
2019-03-22T03:48:27.643Z,3.03
2019-03-22T03:49:27.644Z,3.04
2019-03-22T03:50:27.646Z,3.00
2019-03-22T03:51:27.643Z,3.00
2019-03-22T03:52:27.657Z,3.04
2019-03-22T03:53:27.648Z,3.07
2019-03-22T03:54:27.644Z,3.05
2019-03-22T03:55:27.644Z,3.01
2019-03-22T03:56:27.643Z,3.01
2019-03-22T03:57:27.650Z,3.04
2019-03-22T03:58:27.641Z,3.04
2019-03-22T03:59:27.641Z,3.00
2019-03-22T04:00:27.643Z,2.89
2019-03-22T04:01:27.670Z,2.90
2019-03-22T04:02:27.644Z,2.90
2019-03-22T04:03:27.663Z,2.98
2019-03-22T04:04:27.648Z,2.86
2019-03-22T04:05:27.647Z,2.83
2019-03-22T04:06:27.672Z,2.79
2019-03-22T04:07:27.159Z,2.83
2019-03-22T04:08:27.143Z,2.72
2019-03-22T04:09:27.145Z,2.75
2019-03-22T04:10:27.130Z,2.79
2019-03-22T04:11:27.130Z,2.82
2019-03-22T04:12:27.147Z,2.79
2019-03-22T04:13:27.151Z,2.75
2019-03-22T04:14:27.143Z,2.77
2019-03-22T04:15:25.565Z,2.68
2019-03-22T04:16:27.142Z,2.74
2019-03-22T04:17:27.141Z,2.89
2019-03-22T04:18:27.129Z,3.00
2019-03-22T04:19:27.150Z,3.26
2019-03-22T04:20:27.145Z,3.36
2019-03-22T04:21:27.141Z,3.45
2019-03-22T04:22:27.141Z,3.45
2019-03-22T04:23:27.159Z,3.53
2019-03-22T04:24:27.142Z,3.45
2019-03-22T04:25:27.150Z,3.47
2019-03-22T04:26:27.152Z,3.63
2019-03-22T04:27:27.150Z,3.62
2019-03-22T04:28:27.141Z,3.68
2019-03-22T04:29:27.138Z,3.68
2019-03-22T04:30:27.146Z,3.68
2019-03-22T04:31:27.132Z,3.83
2019-03-22T04:32:27.140Z,3.98
2019-03-22T04:33:27.144Z,3.94
2019-03-22T04:34:27.151Z,3.95
2019-03-22T04:35:27.142Z,3.98
2019-03-22T04:36:27.139Z,4.02
2019-03-22T04:37:27.157Z,4.12
2019-03-22T04:38:27.136Z,4.23
2019-03-22T04:39:27.150Z,4.23
2019-03-22T04:40:27.140Z,4.28
2019-03-22T04:41:27.146Z,4.30
2019-03-22T04:42:27.139Z,4.20
2019-03-22T04:43:27.137Z,4.32
2019-03-22T04:44:27.145Z,4.34
2019-03-22T04:45:27.138Z,4.35
2019-03-22T04:46:27.158Z,4.42
2019-03-22T04:47:27.137Z,4.45
2019-03-22T04:48:27.137Z,4.42
2019-03-22T04:49:27.136Z,4.38
2019-03-22T04:50:27.141Z,4.31
2019-03-22T04:51:25.182Z,4.37
2019-03-22T04:52:27.135Z,4.31
2019-03-22T04:53:27.146Z,4.20
2019-03-22T04:54:27.138Z,4.16
2019-03-22T04:55:26.624Z,4.13
2019-03-22T04:56:26.633Z,4.06
2019-03-22T04:57:26.639Z,3.98
2019-03-22T04:58:26.646Z,3.88
2019-03-22T04:59:26.636Z,3.80
2019-03-22T05:00:26.635Z,3.77
2019-03-22T05:01:26.634Z,3.81
2019-03-22T05:02:26.634Z,3.68
2019-03-22T05:03:25.048Z,3.68
2019-03-22T05:04:26.651Z,3.65
2019-03-22T05:05:26.634Z,3.58
2019-03-22T05:06:26.635Z,3.53
2019-03-22T05:07:26.635Z,3.50
2019-03-22T05:08:26.655Z,3.47
2019-03-22T05:09:24.998Z,3.50
2019-03-22T05:10:26.632Z,3.37
2019-03-22T05:11:26.640Z,3.37
2019-03-22T05:12:26.645Z,3.36
2019-03-22T05:13:26.646Z,3.23
2019-03-22T05:14:26.645Z,3.23
2019-03-22T05:15:26.622Z,3.25
2019-03-22T05:16:26.631Z,3.21
2019-03-22T05:17:26.633Z,3.23
2019-03-22T05:18:26.633Z,3.22
2019-03-22T05:19:26.648Z,3.08
2019-03-22T05:20:26.632Z,3.23
2019-03-22T05:21:26.633Z,3.25
2019-03-22T05:22:26.621Z,3.22
2019-03-22T05:23:26.630Z,3.28
2019-03-22T05:24:26.633Z,3.23
2019-03-22T05:25:26.655Z,3.22
2019-03-22T05:26:26.666Z,3.23
2019-03-22T05:27:26.688Z,3.23
2019-03-22T05:28:26.630Z,3.21
2019-03-22T05:29:30.852Z,3.11
2019-03-22T05:30:26.633Z,3.13
2019-03-22T05:31:26.632Z,3.14
2019-03-22T05:32:26.632Z,3.21
2019-03-22T05:33:26.635Z,3.22
2019-03-22T05:34:26.630Z,3.16
2019-03-22T05:35:26.640Z,3.10
2019-03-22T05:36:26.640Z,3.01
2019-03-22T05:37:26.633Z,2.95
2019-03-22T05:38:26.665Z,3.05
2019-03-22T05:39:26.634Z,2.95
2019-03-22T05:40:26.631Z,2.85
2019-03-22T05:41:26.637Z,2.75
2019-03-22T05:42:26.629Z,2.75
2019-03-22T05:43:25.630Z,2.75
2019-03-22T05:44:26.129Z,2.82
2019-03-22T05:45:24.609Z,2.72
2019-03-22T05:46:26.134Z,2.87
2019-03-22T05:47:26.118Z,2.75
2019-03-22T05:48:26.126Z,2.86
2019-03-22T05:49:26.130Z,2.90
2019-03-22T05:50:26.130Z,2.93
2019-03-22T05:51:24.657Z,2.98
2019-03-22T05:52:26.132Z,3.07
2019-03-22T05:53:26.130Z,3.03
2019-03-22T05:54:26.118Z,3.13
2019-03-22T05:55:26.134Z,3.03
2019-03-22T05:56:26.125Z,3.04
2019-03-22T05:57:24.508Z,2.98
2019-03-22T05:58:26.127Z,2.98
2019-03-22T05:59:26.127Z,2.98
2019-03-22T06:00:26.129Z,2.89
2019-03-22T06:01:26.174Z,2.93
2019-03-22T06:02:26.132Z,3.04
2019-03-22T06:03:24.444Z,3.04
2019-03-22T06:04:26.137Z,3.00
2019-03-22T06:05:26.137Z,3.00
2019-03-22T06:06:26.146Z,3.11
2019-03-22T06:07:26.155Z,3.11
2019-03-22T06:08:26.183Z,3.10
2019-03-22T06:09:26.219Z,3.14
2019-03-22T06:10:26.137Z,3.13
2019-03-22T06:11:26.139Z,3.10
2019-03-22T06:12:26.126Z,3.19
2019-03-22T06:13:26.127Z,3.16
2019-03-22T06:14:26.115Z,3.18
2019-03-22T06:15:24.820Z,3.16
2019-03-22T06:16:26.126Z,3.13
2019-03-22T06:17:26.123Z,3.16
2019-03-22T06:18:26.130Z,3.25
2019-03-22T06:19:26.130Z,3.25
2019-03-22T06:20:26.132Z,3.22
2019-03-22T06:21:24.253Z,3.29
2019-03-22T06:22:26.124Z,3.29
2019-03-22T06:23:26.126Z,3.26
2019-03-22T06:24:26.134Z,3.25
2019-03-22T06:25:26.147Z,3.23
2019-03-22T06:26:26.113Z,3.37
2019-03-22T06:27:26.124Z,3.42
2019-03-22T06:28:26.121Z,3.36
2019-03-22T06:29:26.134Z,3.41
2019-03-22T06:30:26.138Z,3.44
2019-03-22T06:31:25.629Z,3.58
2019-03-22T06:32:25.622Z,3.55
2019-03-22T06:33:25.624Z,3.63
2019-03-22T06:34:25.623Z,3.69
2019-03-22T06:35:25.650Z,3.66
2019-03-22T06:36:25.642Z,3.74
2019-03-22T06:37:25.625Z,3.69
2019-03-22T06:38:24.046Z,3.70
2019-03-22T06:39:25.610Z,3.70
2019-03-22T06:40:25.621Z,3.76
2019-03-22T06:41:25.633Z,3.70
2019-03-22T06:42:25.622Z,3.70
2019-03-22T06:43:25.622Z,3.80
2019-03-22T06:44:25.623Z,3.87
2019-03-22T06:45:25.619Z,3.83
2019-03-22T06:46:25.643Z,3.91
2019-03-22T06:47:25.644Z,4.04
2019-03-22T06:48:25.667Z,4.02
2019-03-22T06:49:23.931Z,4.05
2019-03-22T06:50:25.627Z,4.20
2019-03-22T06:51:25.634Z,4.34
2019-03-22T06:52:25.627Z,4.31
2019-03-22T06:53:25.621Z,4.44
2019-03-22T06:54:31.628Z,4.52
2019-03-22T06:55:26.620Z,4.55
2019-03-22T06:56:25.622Z,4.56
2019-03-22T06:57:25.618Z,4.68
2019-03-22T06:58:25.629Z,4.74
2019-03-22T06:59:25.624Z,4.75
2019-03-22T07:00:23.810Z,4.89
2019-03-22T07:01:25.622Z,4.99
2019-03-22T07:02:25.624Z,4.97
2019-03-22T07:03:25.626Z,4.97
2019-03-22T07:04:25.617Z,5.14
2019-03-22T07:05:25.622Z,5.12
2019-03-22T07:06:25.625Z,5.21
2019-03-22T07:07:25.623Z,5.30
2019-03-22T07:08:25.618Z,5.43
2019-03-22T07:09:25.626Z,5.38
2019-03-22T07:10:25.622Z,5.38
2019-03-22T07:11:25.616Z,5.48
2019-03-22T07:12:25.615Z,5.50
2019-03-22T07:13:25.628Z,5.59
2019-03-22T07:14:25.628Z,5.62
2019-03-22T07:15:25.665Z,5.65
2019-03-22T07:16:23.696Z,5.82
2019-03-22T07:17:25.617Z,5.83
2019-03-22T07:18:24.619Z,5.83
2019-03-22T07:19:25.118Z,5.99
2019-03-22T07:20:25.127Z,5.91
2019-03-22T07:21:25.106Z,5.97
2019-03-22T07:22:25.115Z,5.94
2019-03-22T07:23:25.115Z,6.04
2019-03-22T07:24:25.110Z,6.01
2019-03-22T07:25:25.127Z,6.07
2019-03-22T07:26:25.124Z,6.08
2019-03-22T07:27:25.132Z,6.17
2019-03-22T07:28:25.149Z,6.22
2019-03-22T07:29:25.122Z,6.26
2019-03-22T07:30:25.113Z,6.42
2019-03-22T07:31:25.123Z,6.38
2019-03-22T07:32:23.479Z,6.57
2019-03-22T07:33:25.115Z,6.57
2019-03-22T07:34:25.116Z,6.66
2019-03-22T07:35:25.126Z,6.74
2019-03-22T07:36:25.103Z,6.79
2019-03-22T07:37:25.119Z,6.95
2019-03-22T07:38:25.115Z,6.96
2019-03-22T07:39:25.131Z,6.96
2019-03-22T07:40:25.125Z,6.96
2019-03-22T07:41:25.113Z,7.07
2019-03-22T07:42:25.115Z,7.18
2019-03-22T07:43:25.113Z,7.28
2019-03-22T07:44:25.121Z,7.24
2019-03-22T07:45:25.126Z,7.33
2019-03-22T07:46:25.117Z,7.31
2019-03-22T07:47:25.114Z,7.39
2019-03-22T07:48:25.117Z,7.50
2019-03-22T07:49:25.111Z,7.53
2019-03-22T07:50:25.123Z,7.58
2019-03-22T07:51:25.114Z,7.73
2019-03-22T07:52:25.113Z,7.73
2019-03-22T07:53:23.241Z,7.80
2019-03-22T07:54:25.151Z,7.83
2019-03-22T07:55:25.149Z,7.93
2019-03-22T07:56:25.167Z,8.05
2019-03-22T07:57:25.117Z,8.05
2019-03-22T07:58:25.112Z,8.18
2019-03-22T07:59:25.113Z,8.33
2019-03-22T08:00:30.776Z,8.38
2019-03-22T08:01:26.103Z,8.36
2019-03-22T08:02:25.744Z,8.51
2019-03-22T08:03:25.134Z,8.52
2019-03-22T08:04:25.115Z,8.67
2019-03-22T08:05:24.112Z,8.74
2019-03-22T08:06:24.621Z,8.87
2019-03-22T08:07:24.611Z,9.04
2019-03-22T08:08:24.618Z,9.08
2019-03-22T08:09:24.653Z,9.21
2019-03-22T08:10:24.617Z,9.25
2019-03-22T08:11:25.003Z,9.29
2019-03-22T08:12:24.642Z,9.34
2019-03-22T08:13:24.600Z,9.48
2019-03-22T08:14:24.612Z,9.55
2019-03-22T08:15:24.616Z,9.68
2019-03-22T08:16:24.645Z,9.77
2019-03-22T08:17:24.616Z,9.94
2019-03-22T08:18:24.612Z,9.99
2019-03-22T08:19:24.613Z,10.01
2019-03-22T08:20:22.974Z,9.99
2019-03-22T08:21:24.600Z,9.99
2019-03-22T08:22:24.618Z,10.13
2019-03-22T08:23:24.613Z,10.15
2019-03-22T08:24:24.611Z,10.30
2019-03-22T08:25:24.610Z,10.30
2019-03-22T08:26:24.611Z,10.28
2019-03-22T08:27:24.649Z,10.31
2019-03-22T08:28:24.610Z,10.42
2019-03-22T08:29:24.613Z,10.53
2019-03-22T08:30:24.632Z,10.68
2019-03-22T08:31:24.625Z,10.71
2019-03-22T08:32:24.612Z,10.86
2019-03-22T08:33:24.609Z,10.92
2019-03-22T08:34:24.609Z,11.00
2019-03-22T08:35:24.639Z,11.18
2019-03-22T08:36:22.809Z,11.33
2019-03-22T08:37:24.611Z,11.41
2019-03-22T08:38:24.648Z,11.55
2019-03-22T08:39:24.624Z,11.75
2019-03-22T08:40:24.598Z,11.84
2019-03-22T08:41:24.611Z,11.95
2019-03-22T08:42:24.660Z,12.20
2019-03-22T08:43:24.617Z,12.37
2019-03-22T08:44:24.633Z,12.50
2019-03-22T08:45:24.597Z,12.45
2019-03-22T08:46:24.619Z,12.65
2019-03-22T08:47:33.868Z,12.68
2019-03-22T08:48:25.652Z,12.70
2019-03-22T08:49:24.658Z,12.79
2019-03-22T08:50:24.617Z,12.79
2019-03-22T08:51:24.611Z,12.93
2019-03-22T08:52:22.611Z,12.98
2019-03-22T08:53:24.155Z,12.95
2019-03-22T08:54:24.107Z,12.95
2019-03-22T08:55:24.109Z,12.95
2019-03-22T08:56:24.130Z,13.20
2019-03-22T08:57:25.172Z,13.22
2019-03-22T08:58:24.119Z,13.42
2019-03-22T08:59:24.115Z,13.54
2019-03-22T09:00:24.115Z,13.70
2019-03-22T09:01:24.113Z,13.75
2019-03-22T09:02:24.109Z,13.81
2019-03-22T09:03:24.112Z,13.92
2019-03-22T09:04:24.144Z,13.97
2019-03-22T09:05:24.177Z,14.17
2019-03-22T09:06:24.142Z,14.23
2019-03-22T09:07:24.548Z,14.51
2019-03-22T09:08:22.474Z,14.66
2019-03-22T09:09:24.141Z,14.65
2019-03-22T09:10:24.148Z,14.73
2019-03-22T09:11:24.129Z,14.81
2019-03-22T09:12:26.847Z,14.85
2019-03-22T09:13:24.121Z,14.94
2019-03-22T09:14:24.114Z,14.91
2019-03-22T09:15:24.113Z,14.99
2019-03-22T09:16:24.152Z,15.10
2019-03-22T09:17:24.164Z,15.14
2019-03-22T09:18:24.115Z,15.18
2019-03-22T09:19:24.146Z,15.17
2019-03-22T09:20:24.128Z,15.35
2019-03-22T09:21:24.108Z,15.49
2019-03-22T09:22:24.146Z,15.52
2019-03-22T09:23:24.109Z,15.54
2019-03-22T09:24:24.148Z,15.65
2019-03-22T09:25:24.097Z,15.80
2019-03-22T09:26:24.132Z,15.91
2019-03-22T09:27:24.111Z,16.01
2019-03-22T09:28:24.119Z,16.17
2019-03-22T09:29:24.115Z,16.23
2019-03-22T09:30:24.135Z,16.32
2019-03-22T09:31:24.119Z,16.43
2019-03-22T09:32:24.139Z,16.39
2019-03-22T09:33:24.108Z,16.46
2019-03-22T09:34:33.621Z,16.57
2019-03-22T09:35:25.123Z,16.61
2019-03-22T09:36:24.114Z,16.69
2019-03-22T09:37:24.107Z,16.83
2019-03-22T09:38:23.112Z,16.94
2019-03-22T09:39:23.642Z,17.02
2019-03-22T09:40:23.610Z,17.04
2019-03-22T09:41:23.653Z,17.09
2019-03-22T09:42:23.607Z,17.22
2019-03-22T09:43:23.606Z,17.24
2019-03-22T09:44:23.616Z,17.39
2019-03-22T09:45:23.649Z,17.39
2019-03-22T09:46:23.651Z,17.29
2019-03-22T09:47:23.609Z,17.34
2019-03-22T09:48:23.624Z,17.39
2019-03-22T09:49:23.609Z,17.42
2019-03-22T09:50:23.617Z,17.44
2019-03-22T09:51:23.651Z,17.42
2019-03-22T09:52:23.596Z,17.57
2019-03-22T09:53:23.618Z,17.60
2019-03-22T09:54:23.645Z,17.71
2019-03-22T09:55:23.615Z,17.78
2019-03-22T09:56:22.671Z,17.85
2019-03-22T09:57:23.649Z,17.86
2019-03-22T09:58:23.606Z,17.98
2019-03-22T09:59:23.608Z,17.98
2019-03-22T10:00:23.676Z,18.07
2019-03-22T10:01:24.378Z,18.15
2019-03-22T10:02:23.616Z,18.22
2019-03-22T10:03:23.620Z,18.20
2019-03-22T10:04:23.623Z,18.22
2019-03-22T10:05:23.609Z,18.23
2019-03-22T10:06:23.618Z,18.22
2019-03-22T10:07:23.609Z,18.28
2019-03-22T10:08:23.608Z,18.37
2019-03-22T10:09:23.603Z,18.45
2019-03-22T10:10:23.646Z,18.47
2019-03-22T10:11:23.609Z,18.56
2019-03-22T10:12:23.606Z,18.52
2019-03-22T10:13:23.674Z,18.65
2019-03-22T10:14:23.620Z,18.70
2019-03-22T10:15:23.619Z,18.74
2019-03-22T10:16:23.608Z,18.84
2019-03-22T10:17:23.623Z,18.98
2019-03-22T10:18:23.608Z,19.07
2019-03-22T10:19:23.617Z,19.14
2019-03-22T10:20:23.660Z,19.12
2019-03-22T10:21:23.623Z,19.16
2019-03-22T10:22:23.606Z,19.22
2019-03-22T10:23:23.639Z,19.15
2019-03-22T10:24:23.113Z,19.22
2019-03-22T10:25:23.145Z,19.09
2019-03-22T10:26:23.163Z,19.16
2019-03-22T10:27:23.128Z,19.18
2019-03-22T10:28:23.109Z,19.24
2019-03-22T10:29:23.096Z,19.19
2019-03-22T10:30:23.120Z,19.16
2019-03-22T10:31:36.137Z,19.27
2019-03-22T10:32:24.271Z,19.27
2019-03-22T10:33:23.351Z,19.21
2019-03-22T10:34:23.170Z,19.18
2019-03-22T10:35:26.347Z,19.19
2019-03-22T10:36:23.160Z,19.31
2019-03-22T10:37:23.147Z,19.30
2019-03-22T10:38:30.949Z,19.37
2019-03-22T10:39:22.494Z,19.49
2019-03-22T10:40:23.171Z,19.64
2019-03-22T10:41:23.154Z,19.64
2019-03-22T10:42:23.107Z,19.63
2019-03-22T10:43:23.137Z,19.77
2019-03-22T10:44:23.171Z,19.77
2019-03-22T10:45:23.112Z,19.76
2019-03-22T10:46:23.120Z,19.85
2019-03-22T10:47:23.157Z,19.92
2019-03-22T10:48:23.130Z,19.91
2019-03-22T10:49:23.166Z,19.85
2019-03-22T10:50:23.112Z,19.82
2019-03-22T10:51:23.224Z,19.92
2019-03-22T10:52:23.141Z,19.92
2019-03-22T10:53:23.120Z,20.00
2019-03-22T10:54:23.163Z,20.07
2019-03-22T10:55:29.679Z,20.04
2019-03-22T10:56:25.006Z,20.06
2019-03-22T10:57:23.114Z,20.04
2019-03-22T10:58:23.111Z,19.99
2019-03-22T10:59:23.121Z,20.03
2019-03-22T11:00:23.112Z,19.99
2019-03-22T11:01:23.116Z,19.94
2019-03-22T11:02:23.111Z,20.10
2019-03-22T11:03:23.129Z,20.07
2019-03-22T11:04:23.137Z,20.10
2019-03-22T11:05:23.161Z,20.18
2019-03-22T11:06:26.318Z,20.13
2019-03-22T11:07:23.111Z,20.21
2019-03-22T11:08:23.109Z,20.09
2019-03-22T11:09:23.110Z,20.02
2019-03-22T11:10:22.610Z,19.95
2019-03-22T11:11:21.116Z,19.94
2019-03-22T11:12:22.624Z,19.91
2019-03-22T11:13:22.613Z,20.00
2019-03-22T11:14:22.609Z,19.95
2019-03-22T11:15:24.018Z,19.94
2019-03-22T11:16:22.616Z,19.96
2019-03-22T11:17:22.631Z,19.92
2019-03-22T11:18:22.633Z,20.03
2019-03-22T11:19:22.633Z,20.03
2019-03-22T11:20:22.616Z,20.03
2019-03-22T11:21:22.612Z,19.89
2019-03-22T11:22:22.609Z,19.88
2019-03-22T11:23:22.610Z,19.67
2019-03-22T11:24:22.621Z,19.67
2019-03-22T11:25:22.598Z,19.81
2019-03-22T11:26:22.609Z,19.89
2019-03-22T11:27:22.065Z,19.99
2019-03-22T11:28:22.608Z,20.21
2019-03-22T11:29:22.621Z,20.36
2019-03-22T11:30:22.612Z,20.41
2019-03-22T11:31:28.349Z,20.40
2019-03-22T11:32:23.625Z,20.31
2019-03-22T11:33:22.618Z,20.29
2019-03-22T11:34:22.619Z,20.32
2019-03-22T11:35:22.610Z,20.24
2019-03-22T11:36:22.611Z,20.25
2019-03-22T11:37:22.601Z,20.37
2019-03-22T11:38:23.032Z,20.43
2019-03-22T11:39:22.621Z,20.60
2019-03-22T11:40:22.614Z,20.77
2019-03-22T11:41:22.611Z,20.85
2019-03-22T11:42:22.611Z,20.95
2019-03-22T11:43:22.611Z,20.99
2019-03-22T11:44:22.614Z,21.05
2019-03-22T11:45:24.516Z,21.18
2019-03-22T11:46:22.659Z,21.36
2019-03-22T11:47:22.609Z,21.61
2019-03-22T11:48:22.603Z,21.92
2019-03-22T11:49:22.613Z,22.11
2019-03-22T11:50:22.621Z,22.35
2019-03-22T11:51:22.610Z,22.55
2019-03-22T11:52:22.619Z,22.72
2019-03-22T11:53:22.616Z,22.90
2019-03-22T11:54:22.612Z,22.96
2019-03-22T11:55:22.621Z,23.28
2019-03-22T11:56:22.113Z,23.37
2019-03-22T11:57:22.120Z,23.37
2019-03-22T11:58:22.177Z,23.46
2019-03-22T11:59:22.164Z,23.39
2019-03-22T12:00:22.189Z,23.31
2019-03-22T12:01:22.672Z,23.31
2019-03-22T12:02:22.731Z,23.39
2019-03-22T12:03:22.114Z,23.24
2019-03-22T12:04:22.114Z,23.15
2019-03-22T12:05:22.115Z,23.27
2019-03-22T12:06:22.119Z,23.36
2019-03-22T12:07:22.116Z,23.56
2019-03-22T12:08:22.114Z,23.69
2019-03-22T12:09:22.997Z,23.65
2019-03-22T12:10:20.460Z,23.65
2019-03-22T12:11:22.126Z,23.63
2019-03-22T12:12:22.104Z,23.74
2019-03-22T12:13:22.114Z,23.83
2019-03-22T12:14:22.115Z,23.88
2019-03-22T12:15:21.397Z,23.99
2019-03-22T12:16:22.120Z,24.03
2019-03-22T12:17:22.102Z,23.91
2019-03-22T12:18:22.121Z,23.41
2019-03-22T12:19:22.112Z,23.51
2019-03-22T12:20:22.121Z,23.62
2019-03-22T12:21:22.120Z,23.71
2019-03-22T12:22:22.115Z,23.63
2019-03-22T12:23:22.112Z,23.63
2019-03-22T12:24:22.112Z,23.61
2019-03-22T12:25:22.160Z,23.50
2019-03-22T12:26:22.155Z,23.43
2019-03-22T12:27:22.151Z,23.31
2019-03-22T12:28:22.115Z,23.44
2019-03-22T12:29:22.128Z,23.54
2019-03-22T12:30:22.122Z,23.63
2019-03-22T12:31:22.115Z,23.73
2019-03-22T12:32:31.833Z,23.87
2019-03-22T12:33:23.115Z,23.86
2019-03-22T12:34:22.118Z,23.56
2019-03-22T12:35:22.127Z,23.46
2019-03-22T12:36:22.118Z,23.32
2019-03-22T12:37:22.109Z,23.09
2019-03-22T12:38:22.115Z,23.21
2019-03-22T12:39:22.115Z,23.24
2019-03-22T12:40:22.135Z,23.28
2019-03-22T12:41:22.114Z,23.09
2019-03-22T12:42:21.113Z,23.09
2019-03-22T12:43:21.613Z,22.98
2019-03-22T12:44:21.614Z,22.88
2019-03-22T12:45:21.616Z,22.85
2019-03-22T12:46:21.625Z,22.96
2019-03-22T12:47:21.617Z,22.84
2019-03-22T12:48:21.616Z,22.99
2019-03-22T12:49:21.616Z,23.06
2019-03-22T12:50:21.628Z,22.96
2019-03-22T12:51:21.625Z,22.90
2019-03-22T12:52:21.603Z,23.00
2019-03-22T12:53:21.616Z,22.91
2019-03-22T12:54:21.616Z,22.91
2019-03-22T12:55:21.614Z,22.94
2019-03-22T12:56:21.605Z,22.99
2019-03-22T12:57:21.628Z,22.96
2019-03-22T12:58:21.628Z,23.00
2019-03-22T12:59:21.616Z,22.93
2019-03-22T13:00:21.616Z,22.73
2019-03-22T13:01:21.605Z,22.90
2019-03-22T13:02:21.623Z,22.94
2019-03-22T13:03:21.623Z,22.91
2019-03-22T13:04:21.607Z,22.98
2019-03-22T13:05:21.617Z,23.12
2019-03-22T13:06:21.641Z,23.27
2019-03-22T13:07:21.667Z,23.48
2019-03-22T13:08:21.618Z,23.55